sensor_id;sensor_type;location;lat;lon;timestamp;pressure;altitude;pressure_sealevel;temperature;humidity
77482;BME280;66582;43.004;-75.010;2023-07-20T00:01:22;100215.92;;;26.75;47.98
77482;BME280;66582;43.004;-75.010;2023-07-20T00:03:48;100219.07;;;26.87;46.76
77482;BME280;66582;43.004;-75.010;2023-07-20T00:06:13;100214.30;;;26.98;46.85
77482;BME280;66582;43.004;-75.010;2023-07-20T00:08:38;100213.24;;;25.19;46.11
77482;BME280;66582;43.004;-75.010;2023-07-20T00:11:04;100215.58;;;25.53;48.41
77482;BME280;66582;43.004;-75.010;2023-07-20T00:13:28;100224.15;;;25.27;51.33
77482;BME280;66582;43.004;-75.010;2023-07-20T00:15:54;100225.16;;;26.03;50.78
77482;BME280;66582;43.004;-75.010;2023-07-20T00:18:19;100228.16;;;25.71;50.85
77482;BME280;66582;43.004;-75.010;2023-07-20T00:20:45;100235.56;;;25.40;52.96
77482;BME280;66582;43.004;-75.010;2023-07-20T00:23:10;100237.81;;;25.56;50.40
77482;BME280;66582;43.004;-75.010;2023-07-20T00:25:36;100243.23;;;25.39;52.00
77482;BME280;66582;43.004;-75.010;2023-07-20T00:28:01;100245.87;;;25.52;49.59
77482;BME280;66582;43.004;-75.010;2023-07-20T00:30:26;100247.63;;;26.12;48.80
77482;BME280;66582;43.004;-75.010;2023-07-20T00:32:51;100250.82;;;26.12;48.70
77482;BME280;66582;43.004;-75.010;2023-07-20T00:35:17;100257.74;;;26.56;46.55
77482;BME280;66582;43.004;-75.010;2023-07-20T00:37:42;100259.07;;;25.34;49.18
77482;BME280;66582;43.004;-75.010;2023-07-20T00:40:07;100259.27;;;25.99;51.27
77482;BME280;66582;43.004;-75.010;2023-07-20T00:42:32;100262.36;;;24.81;52.51
77482;BME280;66582;43.004;-75.010;2023-07-20T00:44:57;100261.99;;;24.98;54.47
77482;BME280;66582;43.004;-75.010;2023-07-20T00:47:23;100264.49;;;25.25;55.10
77482;BME280;66582;43.004;-75.010;2023-07-20T00:49:48;100277.31;;;22.18;67.23
77482;BME280;66582;43.004;-75.010;2023-07-20T00:52:14;100280.43;;;23.33;62.90
77482;BME280;66582;43.004;-75.010;2023-07-20T00:54:38;100285.02;;;23.01;61.95
77482;BME280;66582;43.004;-75.010;2023-07-20T00:57:04;100282.54;;;23.55;59.70
77482;BME280;66582;43.004;-75.010;2023-07-20T00:59:28;100289.60;;;23.22;61.00
77482;BME280;66582;43.004;-75.010;2023-07-20T01:01:54;100293.06;;;23.21;60.32
77482;BME280;66582;43.004;-75.010;2023-07-20T01:04:20;100301.75;;;23.40;62.26
77482;BME280;66582;43.004;-75.010;2023-07-20T01:06:48;100297.76;;;22.97;64.74
77482;BME280;66582;43.004;-75.010;2023-07-20T01:09:13;100302.14;;;22.68;65.02
77482;BME280;66582;43.004;-75.010;2023-07-20T01:11:38;100307.59;;;22.85;64.08
77482;BME280;66582;43.004;-75.010;2023-07-20T01:14:01;100314.50;;;22.75;63.62
77482;BME280;66582;43.004;-75.010;2023-07-20T01:16:24;100317.05;;;21.45;71.19
77482;BME280;66582;43.004;-75.010;2023-07-20T01:18:49;100312.46;;;22.36;67.17
77482;BME280;66582;43.004;-75.010;2023-07-20T01:21:21;100315.66;;;22.65;65.33
77482;BME280;66582;43.004;-75.010;2023-07-20T01:26:22;100324.60;;;22.94;60.38
77482;BME280;66582;43.004;-75.010;2023-07-20T01:28:38;100343.43;;;18.73;83.12
77482;BME280;66582;43.004;-75.010;2023-07-20T01:33:22;100352.16;;;16.96;100.00
77482;BME280;66582;43.004;-75.010;2023-07-20T01:35:50;100349.91;;;17.38;100.00
77482;BME280;66582;43.004;-75.010;2023-07-20T01:38:13;100342.30;;;20.00;93.58
77482;BME280;66582;43.004;-75.010;2023-07-20T01:40:38;100349.53;;;18.01;100.00
77482;BME280;66582;43.004;-75.010;2023-07-20T01:43:03;100350.50;;;18.14;100.00
77482;BME280;66582;43.004;-75.010;2023-07-20T01:45:28;100348.75;;;19.89;95.72
77482;BME280;66582;43.004;-75.010;2023-07-20T01:47:53;100338.20;;;21.22;83.23
77482;BME280;66582;43.004;-75.010;2023-07-20T01:50:19;100336.84;;;21.60;78.69
77482;BME280;66582;43.004;-75.010;2023-07-20T01:52:44;100337.09;;;21.26;79.89
77482;BME280;66582;43.004;-75.010;2023-07-20T01:55:09;100339.23;;;20.77;79.24
77482;BME280;66582;43.004;-75.010;2023-07-20T01:57:35;100352.03;;;17.44;100.00
77482;BME280;66582;43.004;-75.010;2023-07-20T02:00:00;100357.82;;;16.81;100.00
77482;BME280;66582;43.004;-75.010;2023-07-20T02:02:27;100361.07;;;16.96;100.00
77482;BME280;66582;43.004;-75.010;2023-07-20T02:04:51;100353.91;;;17.70;100.00
77482;BME280;66582;43.004;-75.010;2023-07-20T02:07:15;100356.07;;;19.19;97.62
77482;BME280;66582;43.004;-75.010;2023-07-20T02:09:40;100363.95;;;18.13;100.00
77482;BME280;66582;43.004;-75.010;2023-07-20T02:12:06;100363.32;;;18.75;94.01
77482;BME280;66582;43.004;-75.010;2023-07-20T02:14:31;100357.92;;;20.27;84.97
77482;BME280;66582;43.004;-75.010;2023-07-20T02:16:57;100364.44;;;18.89;93.13
77482;BME280;66582;43.004;-75.010;2023-07-20T02:19:24;100363.14;;;18.38;93.55
77482;BME280;66582;43.004;-75.010;2023-07-20T02:21:47;100367.17;;;18.38;96.34
77482;BME280;66582;43.004;-75.010;2023-07-20T02:24:13;100362.88;;;20.13;84.15
77482;BME280;66582;43.004;-75.010;2023-07-20T02:26:37;100367.74;;;20.54;76.45
77482;BME280;66582;43.004;-75.010;2023-07-20T02:29:03;100368.46;;;20.72;74.62
77482;BME280;66582;43.004;-75.010;2023-07-20T02:31:28;100374.55;;;20.29;76.51
77482;BME280;66582;43.004;-75.010;2023-07-20T02:33:54;100372.15;;;21.50;71.85
77482;BME280;66582;43.004;-75.010;2023-07-20T02:36:18;100373.52;;;21.91;70.79
77482;BME280;66582;43.004;-75.010;2023-07-20T02:38:44;100367.96;;;22.41;68.19
77482;BME280;66582;43.004;-75.010;2023-07-20T02:41:09;100370.27;;;22.78;67.29
77482;BME280;66582;43.004;-75.010;2023-07-20T02:43:34;100372.89;;;24.00;63.80
77482;BME280;66582;43.004;-75.010;2023-07-20T02:45:59;100378.48;;;24.21;59.30
77482;BME280;66582;43.004;-75.010;2023-07-20T02:48:24;100380.42;;;22.93;61.48
77482;BME280;66582;43.004;-75.010;2023-07-20T02:50:50;100381.31;;;22.88;61.25
77482;BME280;66582;43.004;-75.010;2023-07-20T02:53:15;100384.63;;;22.25;63.29
77482;BME280;66582;43.004;-75.010;2023-07-20T02:55:40;100390.46;;;21.21;65.56
77482;BME280;66582;43.004;-75.010;2023-07-20T02:58:05;100391.15;;;21.06;69.29
77482;BME280;66582;43.004;-75.010;2023-07-20T03:00:30;100390.86;;;22.11;64.58
77482;BME280;66582;43.004;-75.010;2023-07-20T03:02:55;100386.54;;;22.60;63.32
77482;BME280;66582;43.004;-75.010;2023-07-20T03:05:21;100387.55;;;21.86;64.67
77482;BME280;66582;43.004;-75.010;2023-07-20T03:07:46;100391.83;;;21.44;66.13
77482;BME280;66582;43.004;-75.010;2023-07-20T03:10:12;100390.08;;;22.67;62.28
77482;BME280;66582;43.004;-75.010;2023-07-20T03:12:37;100397.50;;;22.20;62.72
77482;BME280;66582;43.004;-75.010;2023-07-20T03:15:03;100392.50;;;22.38;61.94
77482;BME280;66582;43.004;-75.010;2023-07-20T03:17:28;100399.67;;;22.01;62.93
77482;BME280;66582;43.004;-75.010;2023-07-20T03:19:52;100399.16;;;22.12;62.54
77482;BME280;66582;43.004;-75.010;2023-07-20T03:22:18;100395.92;;;22.46;61.45
77482;BME280;66582;43.004;-75.010;2023-07-20T03:24:42;100398.90;;;22.08;63.36
77482;BME280;66582;43.004;-75.010;2023-07-20T03:27:07;100411.44;;;20.47;69.83
77482;BME280;66582;43.004;-75.010;2023-07-20T03:29:33;100409.56;;;21.16;67.90
77482;BME280;66582;43.004;-75.010;2023-07-20T03:31:58;100418.61;;;20.61;68.00
77482;BME280;66582;43.004;-75.010;2023-07-20T03:34:23;100417.17;;;20.63;68.30
77482;BME280;66582;43.004;-75.010;2023-07-20T03:36:49;100408.11;;;21.84;65.56
77482;BME280;66582;43.004;-75.010;2023-07-20T03:39:14;100407.30;;;20.68;66.57
77482;BME280;66582;43.004;-75.010;2023-07-20T03:41:39;100410.97;;;20.82;68.38
77482;BME280;66582;43.004;-75.010;2023-07-20T03:44:05;100412.29;;;20.07;71.79
77482;BME280;66582;43.004;-75.010;2023-07-20T03:46:31;100413.87;;;20.46;70.24
77482;BME280;66582;43.004;-75.010;2023-07-20T03:48:55;100416.21;;;18.56;83.81
77482;BME280;66582;43.004;-75.010;2023-07-20T03:51:20;100420.18;;;15.89;94.87
77482;BME280;66582;43.004;-75.010;2023-07-20T03:53:46;100419.92;;;15.10;100.00
77482;BME280;66582;43.004;-75.010;2023-07-20T03:56:11;100419.72;;;15.59;100.00
77482;BME280;66582;43.004;-75.010;2023-07-20T03:58:36;100420.04;;;15.20;100.00
77482;BME280;66582;43.004;-75.010;2023-07-20T04:01:01;100419.77;;;17.06;100.00
77482;BME280;66582;43.004;-75.010;2023-07-20T04:03:27;100414.38;;;18.74;89.87
77482;BME280;66582;43.004;-75.010;2023-07-20T04:05:52;100421.31;;;17.85;91.95
77482;BME280;66582;43.004;-75.010;2023-07-20T04:08:17;100423.99;;;16.10;98.92
77482;BME280;66582;43.004;-75.010;2023-07-20T04:10:44;100426.87;;;15.27;100.00
77482;BME280;66582;43.004;-75.010;2023-07-20T04:13:08;100429.39;;;14.51;100.00
77482;BME280;66582;43.004;-75.010;2023-07-20T04:15:32;100424.87;;;15.90;100.00
77482;BME280;66582;43.004;-75.010;2023-07-20T04:17:57;100414.86;;;17.62;100.00
77482;BME280;66582;43.004;-75.010;2023-07-20T04:20:23;100402.79;;;18.64;92.63
77482;BME280;66582;43.004;-75.010;2023-07-20T04:22:49;100397.20;;;18.92;90.14
77482;BME280;66582;43.004;-75.010;2023-07-20T04:25:14;100397.58;;;19.77;82.98
77482;BME280;66582;43.004;-75.010;2023-07-20T04:27:40;100403.32;;;20.18;78.83
77482;BME280;66582;43.004;-75.010;2023-07-20T04:30:07;100408.39;;;20.58;76.31
77482;BME280;66582;43.004;-75.010;2023-07-20T04:32:30;100411.63;;;20.63;73.86
77482;BME280;66582;43.004;-75.010;2023-07-20T04:34:55;100412.84;;;20.09;74.38
77482;BME280;66582;43.004;-75.010;2023-07-20T04:37:20;100416.16;;;19.35;76.36
77482;BME280;66582;43.004;-75.010;2023-07-20T04:39:46;100416.28;;;19.87;76.33
77482;BME280;66582;43.004;-75.010;2023-07-20T04:42:11;100414.70;;;20.89;70.75
77482;BME280;66582;43.004;-75.010;2023-07-20T04:44:36;100418.00;;;20.52;70.56
77482;BME280;66582;43.004;-75.010;2023-07-20T04:47:02;100411.87;;;20.52;68.89
77482;BME280;66582;43.004;-75.010;2023-07-20T04:49:27;100415.72;;;20.59;68.40
77482;BME280;66582;43.004;-75.010;2023-07-20T04:51:52;100414.64;;;20.46;71.36
77482;BME280;66582;43.004;-75.010;2023-07-20T04:54:18;100414.92;;;20.17;73.36
77482;BME280;66582;43.004;-75.010;2023-07-20T04:56:43;100414.46;;;19.47;74.55
77482;BME280;66582;43.004;-75.010;2023-07-20T04:59:09;100414.77;;;19.38;74.75
77482;BME280;66582;43.004;-75.010;2023-07-20T05:01:35;100410.65;;;19.55;75.61
77482;BME280;66582;43.004;-75.010;2023-07-20T05:03:59;100412.83;;;19.25;75.72
77482;BME280;66582;43.004;-75.010;2023-07-20T05:06:29;100411.66;;;19.80;74.18
77482;BME280;66582;43.004;-75.010;2023-07-20T05:08:50;100413.43;;;19.97;74.14
77482;BME280;66582;43.004;-75.010;2023-07-20T05:11:15;100414.06;;;19.73;73.98
77482;BME280;66582;43.004;-75.010;2023-07-20T05:13:41;100415.52;;;20.01;72.05
77482;BME280;66582;43.004;-75.010;2023-07-20T05:16:05;100419.29;;;20.15;71.88
77482;BME280;66582;43.004;-75.010;2023-07-20T05:18:30;100427.70;;;19.28;76.03
77482;BME280;66582;43.004;-75.010;2023-07-20T05:20:56;100424.59;;;19.47;72.74
77482;BME280;66582;43.004;-75.010;2023-07-20T05:23:21;100432.49;;;17.24;81.16
77482;BME280;66582;43.004;-75.010;2023-07-20T05:25:54;100441.14;;;15.94;96.51
77482;BME280;66582;43.004;-75.010;2023-07-20T05:28:12;100435.90;;;16.74;93.15
77482;BME280;66582;43.004;-75.010;2023-07-20T05:30:36;100436.70;;;16.40;94.85
77482;BME280;66582;43.004;-75.010;2023-07-20T05:33:01;100435.57;;;16.96;90.52
77482;BME280;66582;43.004;-75.010;2023-07-20T05:35:27;100442.56;;;15.87;94.95
77482;BME280;66582;43.004;-75.010;2023-07-20T05:37:52;100435.00;;;16.67;92.48
77482;BME280;66582;43.004;-75.010;2023-07-20T05:40:18;100439.72;;;16.22;94.39
77482;BME280;66582;43.004;-75.010;2023-07-20T05:42:43;100442.00;;;16.49;93.24
77482;BME280;66582;43.004;-75.010;2023-07-20T05:45:09;100434.12;;;17.02;90.56
77482;BME280;66582;43.004;-75.010;2023-07-20T05:47:33;100437.98;;;16.49;95.19
77482;BME280;66582;43.004;-75.010;2023-07-20T05:49:59;100435.71;;;15.55;95.71
77482;BME280;66582;43.004;-75.010;2023-07-20T05:52:23;100438.37;;;15.91;97.76
77482;BME280;66582;43.004;-75.010;2023-07-20T05:54:49;100429.47;;;18.45;85.35
77482;BME280;66582;43.004;-75.010;2023-07-20T05:57:14;100433.82;;;15.97;92.83
77482;BME280;66582;43.004;-75.010;2023-07-20T05:59:39;100429.66;;;14.16;100.00
77482;BME280;66582;43.004;-75.010;2023-07-20T06:02:05;100427.70;;;14.75;100.00
77482;BME280;66582;43.004;-75.010;2023-07-20T06:04:29;100426.20;;;13.65;100.00
77482;BME280;66582;43.004;-75.010;2023-07-20T06:06:56;100427.94;;;13.36;100.00
77482;BME280;66582;43.004;-75.010;2023-07-20T06:09:21;100426.85;;;13.47;100.00
77482;BME280;66582;43.004;-75.010;2023-07-20T06:11:45;100416.92;;;13.13;100.00
77482;BME280;66582;43.004;-75.010;2023-07-20T06:14:16;100415.63;;;13.93;100.00
77482;BME280;66582;43.004;-75.010;2023-07-20T06:16:36;100417.73;;;14.18;100.00
77482;BME280;66582;43.004;-75.010;2023-07-20T06:19:01;100413.69;;;13.85;100.00
77482;BME280;66582;43.004;-75.010;2023-07-20T06:21:26;100417.45;;;13.01;100.00
77482;BME280;66582;43.004;-75.010;2023-07-20T06:23:51;100418.62;;;12.30;100.00
77482;BME280;66582;43.004;-75.010;2023-07-20T06:26:17;100420.93;;;12.78;100.00
77482;BME280;66582;43.004;-75.010;2023-07-20T06:28:42;100428.64;;;12.07;100.00
77482;BME280;66582;43.004;-75.010;2023-07-20T06:31:07;100418.47;;;12.97;100.00
77482;BME280;66582;43.004;-75.010;2023-07-20T06:33:32;100428.04;;;12.25;100.00
77482;BME280;66582;43.004;-75.010;2023-07-20T06:35:58;100413.23;;;14.53;100.00
77482;BME280;66582;43.004;-75.010;2023-07-20T06:38:23;100410.59;;;15.23;100.00
77482;BME280;66582;43.004;-75.010;2023-07-20T06:40:48;100397.76;;;16.15;100.00
77482;BME280;66582;43.004;-75.010;2023-07-20T06:43:13;100396.31;;;13.79;100.00
77482;BME280;66582;43.004;-75.010;2023-07-20T06:45:39;100385.20;;;15.06;100.00
77482;BME280;66582;43.004;-75.010;2023-07-20T06:48:04;100386.16;;;15.18;100.00
77482;BME280;66582;43.004;-75.010;2023-07-20T06:50:29;100387.63;;;14.10;100.00
77482;BME280;66582;43.004;-75.010;2023-07-20T06:52:54;100389.92;;;15.76;100.00
77482;BME280;66582;43.004;-75.010;2023-07-20T06:55:20;100385.67;;;15.87;100.00
77482;BME280;66582;43.004;-75.010;2023-07-20T06:57:45;100381.11;;;15.98;100.00
77482;BME280;66582;43.004;-75.010;2023-07-20T07:00:11;100389.24;;;13.23;100.00
77482;BME280;66582;43.004;-75.010;2023-07-20T07:02:35;100384.54;;;15.46;100.00
77482;BME280;66582;43.004;-75.010;2023-07-20T07:05:00;100381.37;;;14.21;100.00
77482;BME280;66582;43.004;-75.010;2023-07-20T07:07:25;100386.09;;;12.60;100.00
77482;BME280;66582;43.004;-75.010;2023-07-20T07:09:51;100377.15;;;15.19;100.00
77482;BME280;66582;43.004;-75.010;2023-07-20T07:12:16;100373.19;;;16.15;100.00
77482;BME280;66582;43.004;-75.010;2023-07-20T07:14:42;100369.18;;;16.39;100.00
77482;BME280;66582;43.004;-75.010;2023-07-20T07:17:06;100368.59;;;17.16;99.91
77482;BME280;66582;43.004;-75.010;2023-07-20T07:19:32;100375.17;;;16.77;97.64
77482;BME280;66582;43.004;-75.010;2023-07-20T07:21:56;100373.80;;;16.88;97.94
77482;BME280;66582;43.004;-75.010;2023-07-20T07:24:21;100373.67;;;15.81;100.00
77482;BME280;66582;43.004;-75.010;2023-07-20T07:26:47;100372.47;;;15.94;100.00
77482;BME280;66582;43.004;-75.010;2023-07-20T07:29:12;100373.78;;;15.19;100.00
77482;BME280;66582;43.004;-75.010;2023-07-20T07:31:37;100377.34;;;14.21;100.00
77482;BME280;66582;43.004;-75.010;2023-07-20T07:34:03;100378.09;;;16.11;100.00
77482;BME280;66582;43.004;-75.010;2023-07-20T07:36:28;100380.27;;;15.46;100.00
77482;BME280;66582;43.004;-75.010;2023-07-20T07:38:56;100381.41;;;13.46;100.00
77482;BME280;66582;43.004;-75.010;2023-07-20T07:41:20;100378.17;;;13.92;100.00
77482;BME280;66582;43.004;-75.010;2023-07-20T07:43:44;100377.90;;;13.67;100.00
77482;BME280;66582;43.004;-75.010;2023-07-20T07:46:10;100379.52;;;14.24;100.00
77482;BME280;66582;43.004;-75.010;2023-07-20T07:48:35;100384.13;;;13.58;100.00
77482;BME280;66582;43.004;-75.010;2023-07-20T07:51:01;100380.17;;;14.72;100.00
77482;BME280;66582;43.004;-75.010;2023-07-20T07:53:25;100385.84;;;14.07;100.00
77482;BME280;66582;43.004;-75.010;2023-07-20T07:55:51;100384.15;;;14.79;100.00
77482;BME280;66582;43.004;-75.010;2023-07-20T07:58:17;100384.27;;;13.75;100.00
77482;BME280;66582;43.004;-75.010;2023-07-20T08:00:41;100375.35;;;14.68;100.00
77482;BME280;66582;43.004;-75.010;2023-07-20T08:03:07;100375.16;;;13.84;100.00
77482;BME280;66582;43.004;-75.010;2023-07-20T08:05:31;100374.41;;;14.70;100.00
77482;BME280;66582;43.004;-75.010;2023-07-20T08:07:56;100375.87;;;14.46;100.00
77482;BME280;66582;43.004;-75.010;2023-07-20T08:10:22;100374.50;;;15.03;100.00
77482;BME280;66582;43.004;-75.010;2023-07-20T08:12:47;100373.51;;;13.93;100.00
77482;BME280;66582;43.004;-75.010;2023-07-20T08:15:13;100368.29;;;15.40;100.00
77482;BME280;66582;43.004;-75.010;2023-07-20T08:17:38;100368.98;;;14.48;100.00
77482;BME280;66582;43.004;-75.010;2023-07-20T08:20:03;100369.42;;;16.03;99.47
77482;BME280;66582;43.004;-75.010;2023-07-20T08:22:28;100368.90;;;16.20;97.82
77482;BME280;66582;43.004;-75.010;2023-07-20T08:24:55;100368.78;;;14.44;100.00
77482;BME280;66582;43.004;-75.010;2023-07-20T08:27:18;100372.48;;;15.18;100.00
77482;BME280;66582;43.004;-75.010;2023-07-20T08:29:44;100376.23;;;14.89;100.00
77482;BME280;66582;43.004;-75.010;2023-07-20T08:32:09;100378.62;;;14.87;100.00
77482;BME280;66582;43.004;-75.010;2023-07-20T08:34:34;100377.43;;;14.94;100.00
77482;BME280;66582;43.004;-75.010;2023-07-20T08:36:59;100373.71;;;14.36;100.00
77482;BME280;66582;43.004;-75.010;2023-07-20T08:39:24;100366.67;;;14.90;100.00
77482;BME280;66582;43.004;-75.010;2023-07-20T08:41:49;100362.65;;;15.07;100.00
77482;BME280;66582;43.004;-75.010;2023-07-20T08:44:14;100359.92;;;14.98;100.00
77482;BME280;66582;43.004;-75.010;2023-07-20T08:46:40;100358.47;;;15.44;100.00
77482;BME280;66582;43.004;-75.010;2023-07-20T08:49:06;100356.31;;;15.32;98.15
77482;BME280;66582;43.004;-75.010;2023-07-20T08:51:31;100351.97;;;16.47;95.37
77482;BME280;66582;43.004;-75.010;2023-07-20T08:53:56;100357.95;;;15.69;99.11
77482;BME280;66582;43.004;-75.010;2023-07-20T08:56:21;100358.72;;;14.83;100.00
77482;BME280;66582;43.004;-75.010;2023-07-20T08:58:46;100358.61;;;14.31;100.00
77482;BME280;66582;43.004;-75.010;2023-07-20T09:01:11;100352.78;;;13.47;100.00
77482;BME280;66582;43.004;-75.010;2023-07-20T09:03:36;100356.28;;;13.00;100.00
77482;BME280;66582;43.004;-75.010;2023-07-20T09:06:01;100370.20;;;11.87;100.00
77482;BME280;66582;43.004;-75.010;2023-07-20T09:08:26;100371.86;;;12.24;100.00
77482;BME280;66582;43.004;-75.010;2023-07-20T09:10:51;100371.67;;;11.02;100.00
77482;BME280;66582;43.004;-75.010;2023-07-20T09:13:17;100367.76;;;10.58;100.00
77482;BME280;66582;43.004;-75.010;2023-07-20T09:15:46;100372.97;;;10.32;100.00
77482;BME280;66582;43.004;-75.010;2023-07-20T09:18:08;100370.80;;;10.67;100.00
77482;BME280;66582;43.004;-75.010;2023-07-20T09:20:33;100368.66;;;10.87;100.00
77482;BME280;66582;43.004;-75.010;2023-07-20T09:22:59;100362.19;;;10.38;100.00
77482;BME280;66582;43.004;-75.010;2023-07-20T09:25:24;100367.71;;;10.73;100.00
77482;BME280;66582;43.004;-75.010;2023-07-20T09:27:49;100368.52;;;10.97;100.00
77482;BME280;66582;43.004;-75.010;2023-07-20T09:30:19;100367.54;;;11.14;100.00
77482;BME280;66582;43.004;-75.010;2023-07-20T09:32:40;100370.87;;;9.78;100.00
77482;BME280;66582;43.004;-75.010;2023-07-20T09:35:05;100366.71;;;10.44;100.00
77482;BME280;66582;43.004;-75.010;2023-07-20T09:37:33;100360.85;;;10.86;100.00
77482;BME280;66582;43.004;-75.010;2023-07-20T09:39:54;100359.67;;;10.92;100.00
77482;BME280;66582;43.004;-75.010;2023-07-20T09:42:22;100366.43;;;10.36;100.00
77482;BME280;66582;43.004;-75.010;2023-07-20T09:44:45;100368.72;;;10.63;100.00
77482;BME280;66582;43.004;-75.010;2023-07-20T09:47:11;100369.36;;;11.12;100.00
77482;BME280;66582;43.004;-75.010;2023-07-20T09:49:40;100368.85;;;10.58;100.00
77482;BME280;66582;43.004;-75.010;2023-07-20T09:52:02;100367.67;;;11.73;100.00
77482;BME280;66582;43.004;-75.010;2023-07-20T09:54:27;100373.22;;;11.51;100.00
77482;BME280;66582;43.004;-75.010;2023-07-20T09:56:52;100370.01;;;11.71;100.00
77482;BME280;66582;43.004;-75.010;2023-07-20T09:59:18;100366.68;;;13.69;100.00
77482;BME280;66582;43.004;-75.010;2023-07-20T10:01:42;100362.02;;;13.12;100.00
77482;BME280;66582;43.004;-75.010;2023-07-20T10:04:09;100361.86;;;13.68;100.00
77482;BME280;66582;43.004;-75.010;2023-07-20T10:06:33;100372.94;;;13.37;100.00
77482;BME280;66582;43.004;-75.010;2023-07-20T10:09:02;100378.18;;;10.88;100.00
77482;BME280;66582;43.004;-75.010;2023-07-20T10:11:24;100375.97;;;10.26;100.00
77482;BME280;66582;43.004;-75.010;2023-07-20T10:13:49;100376.90;;;11.02;100.00
77482;BME280;66582;43.004;-75.010;2023-07-20T10:16:18;100371.27;;;13.45;100.00
77482;BME280;66582;43.004;-75.010;2023-07-20T10:18:45;100369.52;;;12.23;100.00
77482;BME280;66582;43.004;-75.010;2023-07-20T10:21:04;100361.03;;;12.33;100.00
77482;BME280;66582;43.004;-75.010;2023-07-20T10:23:29;100365.28;;;11.12;100.00
77482;BME280;66582;43.004;-75.010;2023-07-20T10:25:54;100363.03;;;11.72;100.00
77482;BME280;66582;43.004;-75.010;2023-07-20T10:28:19;100359.17;;;11.73;100.00
77482;BME280;66582;43.004;-75.010;2023-07-20T10:30:43;100355.95;;;11.12;100.00
77482;BME280;66582;43.004;-75.010;2023-07-20T10:33:09;100361.35;;;11.13;100.00
77482;BME280;66582;43.004;-75.010;2023-07-20T10:35:51;100361.83;;;10.71;100.00
77482;BME280;66582;43.004;-75.010;2023-07-20T10:38:01;100357.94;;;10.44;100.00
77482;BME280;66582;43.004;-75.010;2023-07-20T10:40:29;100351.04;;;12.21;100.00
77482;BME280;66582;43.004;-75.010;2023-07-20T10:42:49;100356.64;;;11.11;100.00
77482;BME280;66582;43.004;-75.010;2023-07-20T10:45:14;100357.18;;;11.70;100.00
77482;BME280;66582;43.004;-75.010;2023-07-20T10:47:46;100346.70;;;13.53;100.00
77482;BME280;66582;43.004;-75.010;2023-07-20T10:50:05;100348.57;;;13.95;100.00
77482;BME280;66582;43.004;-75.010;2023-07-20T10:52:38;100346.62;;;14.62;100.00
77482;BME280;66582;43.004;-75.010;2023-07-20T10:54:55;100357.00;;;11.69;100.00
77482;BME280;66582;43.004;-75.010;2023-07-20T10:57:30;100363.53;;;11.54;100.00
77482;BME280;66582;43.004;-75.010;2023-07-20T10:59:47;100367.47;;;11.27;100.00
77482;BME280;66582;43.004;-75.010;2023-07-20T11:02:10;100369.76;;;12.02;100.00
77482;BME280;66582;43.004;-75.010;2023-07-20T11:04:39;100376.29;;;11.51;100.00
77482;BME280;66582;43.004;-75.010;2023-07-20T11:07:01;100375.68;;;11.43;100.00
77482;BME280;66582;43.004;-75.010;2023-07-20T11:09:33;100367.08;;;12.96;100.00
77482;BME280;66582;43.004;-75.010;2023-07-20T11:14:22;100360.11;;;16.17;100.00
77482;BME280;66582;43.004;-75.010;2023-07-20T11:16:45;100359.47;;;17.07;100.00
77482;BME280;66582;43.004;-75.010;2023-07-20T11:19:15;100368.34;;;15.74;100.00
77482;BME280;66582;43.004;-75.010;2023-07-20T11:21:37;100372.75;;;14.20;100.00
77482;BME280;66582;43.004;-75.010;2023-07-20T11:23:57;100366.73;;;16.65;100.00
77482;BME280;66582;43.004;-75.010;2023-07-20T11:26:23;100371.41;;;14.18;100.00
77482;BME280;66582;43.004;-75.010;2023-07-20T11:28:50;100383.88;;;12.87;100.00
77482;BME280;66582;43.004;-75.010;2023-07-20T11:31:14;100392.84;;;15.60;100.00
77482;BME280;66582;43.004;-75.010;2023-07-20T11:33:38;100401.73;;;14.54;100.00
77482;BME280;66582;43.004;-75.010;2023-07-20T11:36:05;100403.68;;;15.58;100.00
77482;BME280;66582;43.004;-75.010;2023-07-20T11:38:29;100402.82;;;16.43;100.00
77482;BME280;66582;43.004;-75.010;2023-07-20T11:40:55;100398.94;;;17.76;100.00
77482;BME280;66582;43.004;-75.010;2023-07-20T11:43:20;100396.20;;;18.14;98.73
77482;BME280;66582;43.004;-75.010;2023-07-20T11:45:46;100395.75;;;18.06;98.89
77482;BME280;66582;43.004;-75.010;2023-07-20T11:48:20;100396.64;;;19.73;90.41
77482;BME280;66582;43.004;-75.010;2023-07-20T11:50:39;100404.46;;;18.13;94.72
77482;BME280;66582;43.004;-75.010;2023-07-20T11:53:01;100406.62;;;17.77;99.41
77482;BME280;66582;43.004;-75.010;2023-07-20T11:55:26;100405.21;;;18.73;93.58
77482;BME280;66582;43.004;-75.010;2023-07-20T11:58:01;100397.41;;;19.40;89.24
77482;BME280;66582;43.004;-75.010;2023-07-20T12:00:17;100396.98;;;19.33;91.52
77482;BME280;66582;43.004;-75.010;2023-07-20T12:02:41;100409.14;;;15.70;100.00
77482;BME280;66582;43.004;-75.010;2023-07-20T12:05:07;100408.46;;;16.09;100.00
77482;BME280;66582;43.004;-75.010;2023-07-20T12:07:35;100405.95;;;15.74;100.00
77482;BME280;66582;43.004;-75.010;2023-07-20T12:10:04;100410.04;;;14.32;100.00
77482;BME280;66582;43.004;-75.010;2023-07-20T12:12:23;100401.97;;;17.55;100.00
77482;BME280;66582;43.004;-75.010;2023-07-20T12:14:47;100398.79;;;18.20;100.00
77482;BME280;66582;43.004;-75.010;2023-07-20T12:17:13;100394.37;;;18.28;100.00
77482;BME280;66582;43.004;-75.010;2023-07-20T12:19:39;100388.79;;;19.21;94.54
77482;BME280;66582;43.004;-75.010;2023-07-20T12:22:03;100392.98;;;19.97;87.89